FAWB/PRY METAR and TAF weather

Enter ICAO airport designator
Station Type Date Time Source
FAWB METAR 2019/04/24 17:00 UTC NOAA

FAWB 241700Z VRB01KT CAVOK 19/16 Q1023


Station Type Date Time Source
FAWB Decoded METAR 2019/04/24 17:00 UTC NOAA

Wonderboom / Pretoria, South Africa (FAWB) 25-39S 028-13E
Apr 24, 2019 - 01:00 PM EDT / 2019.04.24 1700 UTC
Wind: Variable at 1 MPH (1 KT):0
Visibility: greater than 7 mile(s):0
Temperature: 66 F (19 C)
Dew Point: 60 F (16 C)
Relative Humidity: 82%
Pressure (altimeter): 30.21 in. Hg (1023 hPa)
ob: FAWB 241700Z VRB01KT CAVOK 19/16 Q1023
cycle: 17

Station Type Date Time Source
FAWB TAF 2019/01/10 10:00 UTC NOAA

TAF FAWB 101000Z 1010/1018 30007KT CAVOK
BECMG 1014/1016 SCT035 PROB30
TEMPO 1016/1018 -TSRA FEW040CB TX31/1013Z TN26/1018Z

Example: see airport list